sim
Sign-in with your pilot id or email,
or register
Callsign
Passwort

Schedule Details

Flight Number: RYR7068 (3)
Departure: Rome Ciampino Airport (LIRA) at 12:00
Arrival: Thessaloniki International Airport (LGTS) at 13:45
Route: Ryanair Passenger Schedule. Enter filed route here before submitting Pirep.

Weather Information
Getting current METAR information for LIRA 211120Z VRB02KT CAVOK 13/04 Q1027
Getting current METAR information for LGTS 211120Z 33019KT CAVOK 16/M01 Q1023 NOSIG

Schedule Frequency

Route Map